createdAt,value
2023-04-02T00:00:19.148Z,12.45
2023-04-02T00:01:27.854Z,12.43
2023-04-02T00:02:32.446Z,12.42
2023-04-02T00:03:43.337Z,12.42
2023-04-02T00:04:47.477Z,12.44
2023-04-02T00:05:51.644Z,12.39
2023-04-02T00:07:39.194Z,12.37
2023-04-02T00:08:42.818Z,12.35
2023-04-02T00:09:47.287Z,12.35
2023-04-02T00:10:55.681Z,12.32
2023-04-02T00:12:01.370Z,12.31
2023-04-02T00:13:12.652Z,12.36
2023-04-02T00:14:34.445Z,12.36
2023-04-02T00:15:44.902Z,12.33
2023-04-02T00:16:48.555Z,12.32
2023-04-02T00:17:52.543Z,12.29
2023-04-02T00:18:57.259Z,12.27
2023-04-02T00:20:07.437Z,12.25
2023-04-02T00:21:27.685Z,12.22
2023-04-02T00:22:34.857Z,12.19
2023-04-02T00:23:41.277Z,12.17
2023-04-02T00:24:45.298Z,12.17
2023-04-02T00:25:48.981Z,12.18
2023-04-02T00:26:53.761Z,12.19
2023-04-02T00:27:57.410Z,12.16
2023-04-02T00:29:02.162Z,12.15
2023-04-02T00:30:07.064Z,12.13
2023-04-02T00:31:11.594Z,12.14
2023-04-02T00:32:19.885Z,12.16
2023-04-02T00:33:25.281Z,12.13
2023-04-02T00:34:34.730Z,12.13
2023-04-02T00:35:38.351Z,12.11
2023-04-02T00:36:42.586Z,12.12
2023-04-02T00:37:46.162Z,12.11
2023-04-02T00:38:50.165Z,12.10
2023-04-02T00:40:02.638Z,12.08
2023-04-02T00:41:07.894Z,12.06
2023-04-02T00:42:13.281Z,12.03
2023-04-02T00:43:21.586Z,11.99
2023-04-02T00:44:25.242Z,11.98
2023-04-02T00:45:33.994Z,12.03
2023-04-02T00:46:50.221Z,12.01
2023-04-02T00:47:53.973Z,11.98
2023-04-02T00:49:12.039Z,12.02
2023-04-02T00:50:16.222Z,11.98
2023-04-02T00:51:23.010Z,11.97
2023-04-02T00:52:28.793Z,11.94
2023-04-02T00:53:32.316Z,11.90
2023-04-02T00:54:42.339Z,11.91
2023-04-02T00:55:46.075Z,11.92
2023-04-02T00:56:51.708Z,11.87
2023-04-02T00:57:56.220Z,11.86
2023-04-02T00:59:00.321Z,11.87
2023-04-02T01:00:20.740Z,11.87
2023-04-02T01:01:37.147Z,11.88
2023-04-02T01:02:42.144Z,11.84
2023-04-02T01:04:00.047Z,11.82
2023-04-02T01:05:21.409Z,11.84
2023-04-02T01:06:36.319Z,11.85
2023-04-02T01:07:58.182Z,11.85
2023-04-02T01:09:08.498Z,11.84
2023-04-02T01:10:28.127Z,11.85
2023-04-02T01:11:31.961Z,11.83
2023-04-02T01:12:46.264Z,11.80
2023-04-02T01:14:26.854Z,11.78
2023-04-02T01:15:34.366Z,11.75
2023-04-02T01:17:01.600Z,11.73
2023-04-02T01:18:47.001Z,11.71
2023-04-02T01:20:12.149Z,11.67
2023-04-02T01:21:53.501Z,11.66
2023-04-02T01:23:09.235Z,11.61
2023-04-02T01:24:15.615Z,11.59
2023-04-02T01:25:26.320Z,11.56
2023-04-02T01:26:38.257Z,11.50
2023-04-02T01:28:00.228Z,11.46
2023-04-02T01:29:12.512Z,11.45
2023-04-02T01:30:17.179Z,11.45
2023-04-02T01:31:21.454Z,11.43
2023-04-02T01:32:26.620Z,11.44
2023-04-02T01:33:33.337Z,11.44
2023-04-02T01:34:37.137Z,11.45
2023-04-02T01:35:41.762Z,11.47
2023-04-02T01:37:24.725Z,11.50
2023-04-02T01:38:30.619Z,11.49
2023-04-02T01:39:35.025Z,11.46
2023-04-02T01:41:45.833Z,11.44
2023-04-02T01:43:16.267Z,11.41
2023-04-02T01:44:50.726Z,11.38
2023-04-02T01:45:54.323Z,11.35
2023-04-02T01:47:01.720Z,11.33
2023-04-02T01:48:31.768Z,11.37
2023-04-02T01:49:36.168Z,11.35
2023-04-02T01:50:40.024Z,11.35
2023-04-02T01:51:45.227Z,11.36
2023-04-02T01:52:51.646Z,11.31
2023-04-02T01:53:55.693Z,11.32
2023-04-02T01:54:59.257Z,11.28
2023-04-02T01:56:03.680Z,11.29
2023-04-02T01:57:08.889Z,11.27
2023-04-02T01:58:13.488Z,11.30
2023-04-02T01:59:20.841Z,11.31
2023-04-02T02:00:26.230Z,11.29
2023-04-02T02:01:39.657Z,11.29
2023-04-02T02:02:43.848Z,11.25
2023-04-02T02:03:48.000Z,11.29
2023-04-02T02:04:52.135Z,11.26
2023-04-02T02:05:56.202Z,11.27
2023-04-02T02:07:01.402Z,11.25
2023-04-02T02:08:06.150Z,11.24
2023-04-02T02:09:11.047Z,11.23
2023-04-02T02:10:16.645Z,11.21
2023-04-02T02:11:22.224Z,11.20
2023-04-02T02:12:26.328Z,11.20
2023-04-02T02:13:30.472Z,11.17
2023-04-02T02:14:34.326Z,11.17
2023-04-02T02:15:38.589Z,11.16
2023-04-02T02:16:45.412Z,11.11
2023-04-02T02:17:49.724Z,11.11
2023-04-02T02:19:01.965Z,11.11
2023-04-02T02:20:11.913Z,11.10
2023-04-02T02:21:19.489Z,11.10
2023-04-02T02:22:33.788Z,11.11
2023-04-02T02:23:37.383Z,11.11
2023-04-02T02:24:41.682Z,11.12
2023-04-02T02:25:45.913Z,11.12
2023-04-02T02:26:51.190Z,11.11
2023-04-02T02:28:01.509Z,11.09
2023-04-02T02:29:04.786Z,11.08
2023-04-02T02:30:37.655Z,11.09
2023-04-02T02:31:42.539Z,11.09
2023-04-02T02:33:02.545Z,11.10
2023-04-02T02:34:10.032Z,11.09
2023-04-02T02:35:31.842Z,11.09
2023-04-02T02:36:51.319Z,11.08
2023-04-02T02:38:27.286Z,11.02
2023-04-02T02:39:42.182Z,11.02
2023-04-02T02:40:46.072Z,11.00
2023-04-02T02:42:01.367Z,10.99
2023-04-02T02:43:06.468Z,10.98
2023-04-02T02:44:10.296Z,10.98
2023-04-02T02:45:19.120Z,10.94
2023-04-02T02:46:23.577Z,10.94
2023-04-02T02:47:30.571Z,10.93
2023-04-02T02:48:38.758Z,10.90
2023-04-02T02:49:58.267Z,10.87
2023-04-02T02:51:05.483Z,10.87
2023-04-02T02:52:11.947Z,10.86
2023-04-02T02:53:25.760Z,10.85
2023-04-02T02:54:32.208Z,10.85
2023-04-02T02:55:38.098Z,10.85
2023-04-02T02:57:01.780Z,10.84
2023-04-02T02:58:11.779Z,10.86
2023-04-02T02:59:27.645Z,10.86
2023-04-02T03:00:32.031Z,10.84
2023-04-02T03:01:37.937Z,10.83
2023-04-02T03:02:42.243Z,10.84
2023-04-02T03:03:47.983Z,10.83
2023-04-02T03:04:53.757Z,10.81
2023-04-02T03:06:06.064Z,10.85
2023-04-02T03:07:10.452Z,10.83
2023-04-02T03:08:22.439Z,10.82
2023-04-02T03:09:52.131Z,10.81
2023-04-02T03:11:02.161Z,10.81
2023-04-02T03:12:26.030Z,10.80
2023-04-02T03:13:35.981Z,10.78
2023-04-02T03:14:46.327Z,10.78
2023-04-02T03:16:14.010Z,10.74
2023-04-02T03:17:24.673Z,10.70
2023-04-02T03:18:31.157Z,10.72
2023-04-02T03:19:39.893Z,10.69
2023-04-02T03:20:53.395Z,10.67
2023-04-02T03:22:06.654Z,10.64
2023-04-02T03:23:21.962Z,10.64
2023-04-02T03:24:59.825Z,10.64
2023-04-02T03:26:29.083Z,10.59
2023-04-02T03:27:36.190Z,10.58
2023-04-02T03:28:42.591Z,10.59
2023-04-02T03:30:17.629Z,10.61
2023-04-02T03:31:52.698Z,10.57
2023-04-02T03:33:02.919Z,10.56
2023-04-02T03:34:18.982Z,10.56
2023-04-02T03:35:44.496Z,10.54
2023-04-02T03:37:00.922Z,10.55
2023-04-02T03:38:14.525Z,10.53
2023-04-02T03:39:24.601Z,10.52
2023-04-02T03:40:32.579Z,10.46
2023-04-02T03:42:01.044Z,10.45
2023-04-02T03:43:26.512Z,10.45
2023-04-02T03:44:40.671Z,10.46
2023-04-02T03:45:47.343Z,10.45
2023-04-02T03:46:58.016Z,10.46
2023-04-02T03:48:26.489Z,10.47
2023-04-02T03:49:55.049Z,10.44
2023-04-02T03:51:06.459Z,10.45
2023-04-02T03:52:13.066Z,10.47
2023-04-02T03:53:17.637Z,10.47
2023-04-02T03:54:22.389Z,10.47
2023-04-02T03:55:29.826Z,10.54
2023-04-02T03:56:40.824Z,10.57
2023-04-02T03:58:01.691Z,10.62
2023-04-02T03:59:43.810Z,10.70
2023-04-02T04:01:09.665Z,10.73
2023-04-02T04:02:44.495Z,10.76
2023-04-02T04:03:58.467Z,10.72
2023-04-02T04:05:02.944Z,10.67
2023-04-02T04:06:11.254Z,10.68
2023-04-02T04:07:23.418Z,10.66
2023-04-02T04:08:43.381Z,10.64
2023-04-02T04:09:47.473Z,10.64
2023-04-02T04:10:54.866Z,10.64
2023-04-02T04:12:37.010Z,10.65
2023-04-02T04:14:04.756Z,10.64
2023-04-02T04:15:31.298Z,10.64
2023-04-02T04:16:42.035Z,10.62
2023-04-02T04:18:02.731Z,10.63
2023-04-02T04:19:24.125Z,10.60
2023-04-02T04:20:35.807Z,10.60
2023-04-02T04:21:39.576Z,10.58
2023-04-02T04:22:51.075Z,10.54
2023-04-02T04:24:04.630Z,10.54
2023-04-02T04:25:41.097Z,10.52
2023-04-02T04:26:54.774Z,10.52
2023-04-02T04:28:19.906Z,10.51
2023-04-02T04:29:52.947Z,10.51
2023-04-02T04:31:19.043Z,10.48
2023-04-02T04:32:28.227Z,10.50
2023-04-02T04:33:40.741Z,10.48
2023-04-02T04:34:52.640Z,10.46
2023-04-02T04:36:01.084Z,10.45
2023-04-02T04:37:26.471Z,10.43
2023-04-02T04:38:40.494Z,10.42
2023-04-02T04:39:57.347Z,10.42
2023-04-02T04:41:06.843Z,10.43
2023-04-02T04:42:17.452Z,10.42
2023-04-02T04:43:53.609Z,10.39
2023-04-02T04:45:09.995Z,10.39
2023-04-02T04:46:25.176Z,10.39
2023-04-02T04:47:37.963Z,10.39
2023-04-02T04:48:54.694Z,10.41
2023-04-02T04:50:05.539Z,10.39
2023-04-02T04:51:24.426Z,10.36
2023-04-02T04:52:48.867Z,10.33
2023-04-02T04:53:54.630Z,10.19
2023-04-02T04:55:02.562Z,10.08
2023-04-02T04:56:18.923Z,10.02
2023-04-02T04:57:38.253Z,9.99
2023-04-02T04:59:06.885Z,9.96
2023-04-02T05:00:21.718Z,9.94
2023-04-02T05:01:30.441Z,9.87
2023-04-02T05:02:41.130Z,9.84
2023-04-02T05:04:21.605Z,9.71
2023-04-02T05:05:30.229Z,9.64
2023-04-02T05:06:41.078Z,9.59
2023-04-02T05:07:47.970Z,9.56
2023-04-02T05:08:53.128Z,9.45
2023-04-02T05:10:07.616Z,9.41
2023-04-02T05:11:25.253Z,9.35
2023-04-02T05:12:43.607Z,9.24
2023-04-02T05:13:53.614Z,9.16
2023-04-02T05:15:15.949Z,9.13
2023-04-02T05:16:38.279Z,9.11
2023-04-02T05:18:12.888Z,9.15
2023-04-02T05:19:36.670Z,9.16
2023-04-02T05:20:59.112Z,9.14
2023-04-02T05:22:19.009Z,9.12
2023-04-02T05:23:31.764Z,9.10
2023-04-02T05:24:54.433Z,9.02
2023-04-02T05:26:03.734Z,9.05
2023-04-02T05:27:37.952Z,9.05
2023-04-02T05:28:53.524Z,9.03
2023-04-02T05:30:20.244Z,9.01
2023-04-02T05:31:49.613Z,9.04
2023-04-02T05:33:15.962Z,9.04
2023-04-02T05:34:24.596Z,9.06
2023-04-02T05:35:33.335Z,9.10
2023-04-02T05:36:37.693Z,9.13
2023-04-02T05:37:41.846Z,9.14
2023-04-02T05:38:47.014Z,9.15
2023-04-02T05:40:00.824Z,9.19
2023-04-02T05:41:06.130Z,9.21
2023-04-02T05:42:13.241Z,9.22
2023-04-02T05:43:27.179Z,9.22
2023-04-02T05:44:36.337Z,9.26
2023-04-02T05:45:42.236Z,9.23
2023-04-02T05:46:57.788Z,9.30
2023-04-02T05:48:06.728Z,9.32
2023-04-02T05:49:28.756Z,9.29
2023-04-02T05:50:38.324Z,9.30
2023-04-02T05:51:47.233Z,9.26
2023-04-02T05:53:04.974Z,9.29
2023-04-02T05:54:13.571Z,9.26
2023-04-02T05:55:26.350Z,9.34
2023-04-02T05:56:41.799Z,9.32
2023-04-02T05:58:13.510Z,9.29
2023-04-02T05:59:29.647Z,9.39
2023-04-02T06:00:43.513Z,9.35
2023-04-02T06:02:01.007Z,9.36
2023-04-02T06:03:24.725Z,9.38
2023-04-02T06:04:49.448Z,9.39
2023-04-02T06:05:54.687Z,9.40
2023-04-02T06:07:07.088Z,9.39
2023-04-02T06:08:21.705Z,9.44
2023-04-02T06:09:31.272Z,9.44
2023-04-02T06:11:33.750Z,9.44
2023-04-02T06:13:09.569Z,9.40
2023-04-02T06:14:17.528Z,9.35
2023-04-02T06:15:23.903Z,9.36
2023-04-02T06:16:34.008Z,9.36
2023-04-02T06:18:02.845Z,9.36
2023-04-02T06:19:09.611Z,9.35
2023-04-02T06:20:17.142Z,9.34
2023-04-02T06:21:23.352Z,9.37
2023-04-02T06:22:40.015Z,9.34
2023-04-02T06:23:54.712Z,9.37
2023-04-02T06:25:07.568Z,9.41
2023-04-02T06:26:35.202Z,9.45
2023-04-02T06:27:40.729Z,9.48
2023-04-02T06:28:52.376Z,9.49
2023-04-02T06:30:05.881Z,9.49
2023-04-02T06:31:40.593Z,9.52
2023-04-02T06:32:46.530Z,9.47
2023-04-02T06:33:53.448Z,9.46
2023-04-02T06:34:58.931Z,9.44
2023-04-02T06:36:02.599Z,9.44
2023-04-02T06:37:21.107Z,9.45
2023-04-02T06:38:30.131Z,9.47
2023-04-02T06:39:34.742Z,9.53
2023-04-02T06:46:32.408Z,9.11
2023-04-02T06:47:43.651Z,9.08
2023-04-02T06:48:59.490Z,9.19
2023-04-02T06:50:17.752Z,9.26
2023-04-02T06:51:22.233Z,9.08
2023-04-02T06:52:38.802Z,9.20
2023-04-02T06:53:50.558Z,9.11
2023-04-02T06:54:56.037Z,9.05
2023-04-02T06:56:23.476Z,8.99
2023-04-02T06:57:27.762Z,9.13
2023-04-02T06:58:32.156Z,9.19
2023-04-02T06:59:36.928Z,9.21
2023-04-02T07:00:47.040Z,9.36
2023-04-02T07:02:00.491Z,9.54
2023-04-02T07:03:28.884Z,9.69
2023-04-02T07:04:35.257Z,9.97
2023-04-02T07:05:42.440Z,10.16
2023-04-02T07:06:47.274Z,10.43
2023-04-02T07:07:52.868Z,10.56
2023-04-02T07:08:56.866Z,10.65
2023-04-02T07:10:01.448Z,10.70
2023-04-02T07:11:06.427Z,10.83
2023-04-02T07:12:16.526Z,10.71
2023-04-02T07:13:23.142Z,10.74
2023-04-02T07:14:27.425Z,10.69
2023-04-02T07:15:31.472Z,10.94
2023-04-02T07:16:37.356Z,11.25
2023-04-02T07:17:42.096Z,10.83
2023-04-02T07:18:46.174Z,10.76
2023-04-02T07:19:50.191Z,10.75
2023-04-02T07:20:56.592Z,11.07
2023-04-02T07:22:01.633Z,11.33
2023-04-02T07:23:11.711Z,11.62
2023-04-02T07:24:15.852Z,11.58
2023-04-02T07:25:19.502Z,11.27
2023-04-02T07:26:26.100Z,11.11
2023-04-02T07:27:29.647Z,11.20
2023-04-02T07:28:33.266Z,11.42
2023-04-02T07:29:38.173Z,11.63
2023-04-02T07:30:42.430Z,11.72
2023-04-02T07:31:46.228Z,11.78
2023-04-02T07:32:50.613Z,11.67
2023-04-02T07:33:56.389Z,11.49
2023-04-02T07:35:00.452Z,11.51
2023-04-02T07:36:04.516Z,11.28
2023-04-02T07:37:08.896Z,11.26
2023-04-02T07:38:12.533Z,11.17
2023-04-02T07:39:16.328Z,11.22
2023-04-02T07:40:22.897Z,11.50
2023-04-02T07:41:26.994Z,11.62
2023-04-02T07:42:31.260Z,11.61
2023-04-02T07:43:36.605Z,11.80
2023-04-02T07:44:40.643Z,11.64
2023-04-02T07:45:44.309Z,11.64
2023-04-02T07:46:48.396Z,11.24
2023-04-02T07:47:52.153Z,11.29
2023-04-02T07:48:56.394Z,11.15
2023-04-02T07:50:00.555Z,11.21
2023-04-02T07:51:04.292Z,11.23
2023-04-02T07:52:08.421Z,11.36
2023-04-02T07:53:35.586Z,11.35
2023-04-02T07:54:40.931Z,11.32
2023-04-02T07:55:44.994Z,11.27
2023-04-02T07:56:49.124Z,11.29
2023-04-02T07:57:54.837Z,11.53
2023-04-02T07:58:58.840Z,11.62
2023-04-02T08:00:02.913Z,11.57
2023-04-02T08:01:28.197Z,11.16
2023-04-02T08:02:32.067Z,11.35
2023-04-02T08:03:36.702Z,11.59
2023-04-02T08:04:40.749Z,11.72
2023-04-02T08:05:44.847Z,11.97
2023-04-02T08:06:49.119Z,12.28
2023-04-02T08:07:56.558Z,12.72
2023-04-02T08:09:00.240Z,12.92
2023-04-02T08:10:05.141Z,12.56
2023-04-02T08:11:09.363Z,12.40
2023-04-02T08:12:16.466Z,12.47
2023-04-02T08:13:20.195Z,12.62
2023-04-02T08:14:23.840Z,12.55
2023-04-02T08:15:27.688Z,12.33
2023-04-02T08:16:48.696Z,12.40
2023-04-02T08:17:52.460Z,11.98
2023-04-02T08:18:56.574Z,12.25
2023-04-02T08:20:03.235Z,12.62
2023-04-02T08:21:08.584Z,12.73
2023-04-02T08:22:12.491Z,12.50
2023-04-02T08:23:18.512Z,12.36
2023-04-02T08:24:22.882Z,12.37
2023-04-02T08:25:26.763Z,12.74
2023-04-02T08:26:31.083Z,13.27
2023-04-02T08:27:34.743Z,13.62
2023-04-02T08:28:39.003Z,14.03
2023-04-02T08:29:43.001Z,13.62
2023-04-02T08:30:47.056Z,13.90
2023-04-02T08:31:51.193Z,14.02
2023-04-02T08:32:55.318Z,13.58
2023-04-02T08:33:59.884Z,13.93
2023-04-02T08:35:03.552Z,14.18
2023-04-02T08:36:07.388Z,14.19
2023-04-02T08:37:14.573Z,14.31
2023-04-02T08:38:19.721Z,14.50
2023-04-02T08:39:24.093Z,15.65
2023-04-02T08:40:39.427Z,16.63
2023-04-02T08:41:51.772Z,17.46
2023-04-02T08:43:10.700Z,17.52
2023-04-02T08:45:10.935Z,17.42
2023-04-02T08:46:32.185Z,18.01
2023-04-02T08:47:37.877Z,18.27
2023-04-02T08:48:42.747Z,18.47
2023-04-02T08:49:50.078Z,18.98
2023-04-02T08:50:53.811Z,19.54
2023-04-02T08:51:57.572Z,20.87
2023-04-02T08:53:02.764Z,21.61
2023-04-02T08:54:39.009Z,21.70
2023-04-02T08:56:06.487Z,23.15
2023-04-02T08:57:46.974Z,24.07
2023-04-02T08:58:51.330Z,24.63
2023-04-02T09:00:19.297Z,25.62
2023-04-02T09:01:40.246Z,26.45
2023-04-02T09:02:49.665Z,25.92
2023-04-02T09:05:18.476Z,25.95
2023-04-02T09:06:22.332Z,24.61
2023-04-02T09:07:27.755Z,24.41
2023-04-02T09:08:32.080Z,25.18
2023-04-02T09:09:37.641Z,26.39
2023-04-02T09:11:05.969Z,26.63
2023-04-02T09:12:20.883Z,26.62
2023-04-02T09:13:28.408Z,27.24
2023-04-02T09:14:57.552Z,28.11
2023-04-02T09:16:12.000Z,27.96
2023-04-02T09:17:25.542Z,27.83
2023-04-02T09:18:29.773Z,28.13
2023-04-02T09:19:41.466Z,28.46
2023-04-02T09:20:45.613Z,29.02
2023-04-02T09:22:10.036Z,29.59
2023-04-02T09:23:19.826Z,30.30
2023-04-02T09:24:23.919Z,30.73
2023-04-02T09:25:29.904Z,31.11
2023-04-02T09:26:34.500Z,28.99
2023-04-02T09:27:38.498Z,29.12
2023-04-02T09:28:42.398Z,29.97
2023-04-02T09:29:47.807Z,30.33
2023-04-02T09:31:07.488Z,31.11
2023-04-02T09:32:30.163Z,29.21
2023-04-02T09:33:43.290Z,30.13
2023-04-02T09:34:46.914Z,29.58
2023-04-02T09:35:50.890Z,28.70
2023-04-02T09:36:54.929Z,28.29
2023-04-02T09:38:24.339Z,28.34
2023-04-02T09:39:30.353Z,28.95
2023-04-02T09:40:36.736Z,28.37
2023-04-02T09:41:40.820Z,29.09
2023-04-02T09:42:44.453Z,29.82
2023-04-02T09:43:48.174Z,30.77
2023-04-02T09:44:52.143Z,31.14
2023-04-02T09:45:57.924Z,31.06
2023-04-02T09:47:06.232Z,30.70
2023-04-02T09:48:25.267Z,29.71
2023-04-02T09:49:36.891Z,30.14
2023-04-02T09:50:41.240Z,30.43
2023-04-02T09:51:44.946Z,31.11
2023-04-02T09:52:49.302Z,31.66
2023-04-02T09:54:04.743Z,30.65
2023-04-02T09:55:26.468Z,29.39
2023-04-02T09:56:34.894Z,29.83
2023-04-02T09:57:45.220Z,29.98
2023-04-02T09:59:05.107Z,30.50
2023-04-02T10:00:29.853Z,29.77
2023-04-02T10:01:42.282Z,28.32
2023-04-02T10:03:00.337Z,28.27
2023-04-02T10:04:05.510Z,27.13
2023-04-02T10:05:39.382Z,28.56
2023-04-02T10:06:49.935Z,29.81
2023-04-02T10:07:54.997Z,30.51
2023-04-02T10:08:58.749Z,31.20
2023-04-02T10:10:05.039Z,31.95
2023-04-02T10:11:22.017Z,32.64
2023-04-02T10:12:25.569Z,33.23
2023-04-02T10:13:30.219Z,33.77
2023-04-02T10:14:44.510Z,33.25
2023-04-02T10:16:27.233Z,32.74
2023-04-02T10:17:32.570Z,32.91
2023-04-02T10:18:45.534Z,31.43
2023-04-02T10:19:53.789Z,31.10
2023-04-02T10:20:57.928Z,32.07
2023-04-02T10:22:04.171Z,32.86
2023-04-02T10:23:10.749Z,33.24
2023-04-02T10:24:18.188Z,33.27
2023-04-02T10:25:22.853Z,33.33
2023-04-02T10:26:41.943Z,33.64
2023-04-02T10:27:48.052Z,33.83
2023-04-02T10:29:07.092Z,34.24
2023-04-02T10:30:17.946Z,34.51
2023-04-02T10:31:30.352Z,34.48
2023-04-02T10:32:46.146Z,34.58
2023-04-02T10:33:56.667Z,34.87
2023-04-02T10:35:04.629Z,34.70
2023-04-02T10:36:22.302Z,34.88
2023-04-02T10:37:41.152Z,34.99
2023-04-02T10:38:52.261Z,35.21
2023-04-02T10:40:10.547Z,35.59
2023-04-02T10:41:33.965Z,35.42
2023-04-02T10:43:02.236Z,34.83
2023-04-02T10:44:17.177Z,34.96
2023-04-02T10:45:43.503Z,35.01
2023-04-02T10:47:19.626Z,35.09
2023-04-02T10:48:47.277Z,35.20
2023-04-02T10:50:09.587Z,34.98
2023-04-02T10:51:43.292Z,33.18
2023-04-02T10:52:48.057Z,32.96
2023-04-02T10:54:04.725Z,32.93
2023-04-02T10:55:19.730Z,33.01
2023-04-02T10:56:23.875Z,33.41
2023-04-02T10:57:43.076Z,33.00
2023-04-02T10:59:02.275Z,33.20
2023-04-02T11:00:38.910Z,33.19
2023-04-02T11:01:42.827Z,33.28
2023-04-02T11:03:01.853Z,32.95
2023-04-02T11:04:16.931Z,32.74
2023-04-02T11:05:34.229Z,33.02
2023-04-02T11:06:45.408Z,33.34
2023-04-02T11:08:24.686Z,33.14
2023-04-02T11:09:30.753Z,32.96
2023-04-02T11:10:37.010Z,32.53
2023-04-02T11:11:42.983Z,31.74
2023-04-02T11:12:56.750Z,31.10
2023-04-02T11:14:15.743Z,29.88
2023-04-02T11:15:19.983Z,30.28
2023-04-02T11:16:24.325Z,30.11
2023-04-02T11:17:28.416Z,30.60
2023-04-02T11:18:37.715Z,30.61
2023-04-02T11:19:41.678Z,30.94
2023-04-02T11:21:02.384Z,31.06
2023-04-02T11:22:19.060Z,28.69
2023-04-02T11:23:23.027Z,28.69
2023-04-02T11:24:33.503Z,27.48
2023-04-02T11:25:37.765Z,26.77
2023-04-02T11:26:47.260Z,26.91
2023-04-02T11:27:51.341Z,25.62
2023-04-02T11:29:22.595Z,26.08
2023-04-02T11:30:28.102Z,26.76
2023-04-02T11:31:31.884Z,27.16
2023-04-02T11:32:38.425Z,28.04
2023-04-02T11:33:45.405Z,28.39
2023-04-02T11:34:59.785Z,28.92
2023-04-02T11:36:46.476Z,29.61
2023-04-02T11:37:50.322Z,29.74
2023-04-02T11:38:59.457Z,29.86
2023-04-02T11:40:17.216Z,30.27
2023-04-02T11:42:06.165Z,30.45
2023-04-02T11:43:34.185Z,30.50
2023-04-02T11:44:38.237Z,29.82
2023-04-02T11:45:52.990Z,29.13
2023-04-02T11:47:16.919Z,29.30
2023-04-02T11:48:23.438Z,29.14
2023-04-02T11:49:58.620Z,29.02
2023-04-02T11:51:05.729Z,28.90
2023-04-02T11:52:48.722Z,29.04
2023-04-02T11:53:54.441Z,28.81
2023-04-02T11:55:00.554Z,29.08
2023-04-02T11:56:26.551Z,28.79
2023-04-02T11:58:04.750Z,28.58
2023-04-02T11:59:23.199Z,28.97
2023-04-02T12:00:42.798Z,29.09
2023-04-02T12:02:10.317Z,28.04
2023-04-02T12:03:47.592Z,28.46
2023-04-02T12:05:09.893Z,29.01
2023-04-02T12:06:29.135Z,29.10
2023-04-02T12:07:47.645Z,29.32
2023-04-02T12:09:27.612Z,29.20
2023-04-02T12:10:51.806Z,29.67
2023-04-02T12:12:01.518Z,28.07
2023-04-02T12:13:06.778Z,27.42
2023-04-02T12:15:50.934Z,28.51
2023-04-02T12:16:55.017Z,28.96
2023-04-02T12:18:12.444Z,29.46
2023-04-02T12:19:16.538Z,29.71
2023-04-02T12:20:25.341Z,30.26
2023-04-02T12:21:29.650Z,30.37
2023-04-02T12:22:33.512Z,30.82
2023-04-02T12:23:38.084Z,31.15
2023-04-02T12:24:42.137Z,31.39
2023-04-02T12:25:47.070Z,31.50
2023-04-02T12:26:51.142Z,30.87
2023-04-02T12:28:18.662Z,30.47
2023-04-02T12:29:29.808Z,30.17
2023-04-02T12:30:34.575Z,29.68
2023-04-02T12:31:38.356Z,30.05
2023-04-02T12:32:42.102Z,30.47
2023-04-02T12:33:45.709Z,31.05
2023-04-02T12:34:49.321Z,31.50
2023-04-02T12:35:56.125Z,32.03
2023-04-02T12:37:03.332Z,32.19
2023-04-02T12:38:07.311Z,32.48
2023-04-02T12:39:18.072Z,32.38
2023-04-02T12:40:22.108Z,32.58
2023-04-02T12:41:31.964Z,31.80
2023-04-02T12:42:36.233Z,32.24
2023-04-02T12:43:40.689Z,32.50
2023-04-02T12:44:50.327Z,32.25
2023-04-02T12:45:56.050Z,32.91
2023-04-02T12:46:59.794Z,32.89
2023-04-02T12:48:05.622Z,32.95
2023-04-02T12:49:24.412Z,33.02
2023-04-02T12:50:28.021Z,32.94
2023-04-02T12:51:32.188Z,33.26
2023-04-02T12:52:36.878Z,33.47
2023-04-02T12:53:41.761Z,33.32
2023-04-02T12:54:52.540Z,32.90
2023-04-02T12:55:56.197Z,32.83
2023-04-02T12:57:28.290Z,31.92
2023-04-02T12:58:45.639Z,31.42
2023-04-02T12:59:49.290Z,31.03
2023-04-02T13:00:52.886Z,30.81
2023-04-02T13:02:01.399Z,31.11
2023-04-02T13:03:07.983Z,31.29
2023-04-02T13:04:15.677Z,29.98
2023-04-02T13:05:37.906Z,29.55
2023-04-02T13:06:43.156Z,29.00
2023-04-02T13:07:47.877Z,29.08
2023-04-02T13:08:52.264Z,28.95
2023-04-02T13:09:57.853Z,28.77
2023-04-02T13:11:02.874Z,28.43
2023-04-02T13:12:08.144Z,28.25
2023-04-02T13:13:27.703Z,27.94
2023-04-02T13:14:31.268Z,27.49
2023-04-02T13:15:37.711Z,27.52
2023-04-02T13:16:41.464Z,27.27
2023-04-02T13:17:49.423Z,26.80
2023-04-02T13:18:53.217Z,26.32
2023-04-02T13:19:57.204Z,26.08
2023-04-02T13:21:03.526Z,26.39
2023-04-02T13:22:32.916Z,26.09
2023-04-02T13:23:38.050Z,26.07
2023-04-02T13:24:42.703Z,25.99
2023-04-02T13:25:46.664Z,25.48
2023-04-02T13:26:51.470Z,25.11
2023-04-02T13:27:55.369Z,24.95
2023-04-02T13:29:02.918Z,24.88
2023-04-02T13:30:16.585Z,25.09
2023-04-02T13:31:20.144Z,25.09
2023-04-02T13:32:24.278Z,25.09
2023-04-02T13:33:28.474Z,24.85
2023-04-02T13:34:32.602Z,24.92
2023-04-02T13:35:36.673Z,24.89
2023-04-02T13:36:40.883Z,24.74
2023-04-02T13:37:45.186Z,24.75
2023-04-02T13:38:48.847Z,24.76
2023-04-02T13:39:52.463Z,24.98
2023-04-02T13:40:56.474Z,24.84
2023-04-02T13:42:03.760Z,24.69
2023-04-02T13:43:08.452Z,24.43
2023-04-02T13:44:48.851Z,24.68
2023-04-02T13:45:53.114Z,24.68
2023-04-02T13:46:57.812Z,24.71
2023-04-02T13:48:02.841Z,24.40
2023-04-02T13:49:06.986Z,24.07
2023-04-02T13:50:12.082Z,24.15
2023-04-02T13:51:18.549Z,24.31
2023-04-02T13:52:22.562Z,24.11
2023-04-02T13:53:30.414Z,24.09
2023-04-02T13:54:54.242Z,24.00
2023-04-02T13:55:58.305Z,23.88
2023-04-02T13:57:02.445Z,23.88
2023-04-02T13:58:07.103Z,23.99
2023-04-02T13:59:11.223Z,24.03
2023-04-02T14:00:15.494Z,24.09
2023-04-02T14:01:22.736Z,23.86
2023-04-02T14:02:26.502Z,23.93
2023-04-02T14:03:30.127Z,23.99
2023-04-02T14:04:36.732Z,23.89
2023-04-02T14:05:43.036Z,23.76
2023-04-02T14:07:26.446Z,23.69
2023-04-02T14:08:33.496Z,23.52
2023-04-02T14:09:55.589Z,23.43
2023-04-02T14:11:07.799Z,23.32
2023-04-02T14:12:31.042Z,23.39
2023-04-02T14:13:50.060Z,23.48
2023-04-02T14:15:18.639Z,23.48
2023-04-02T14:16:34.318Z,23.30
2023-04-02T14:18:11.764Z,23.37
2023-04-02T14:19:42.582Z,23.42
2023-04-02T14:20:52.167Z,23.39
2023-04-02T14:22:20.513Z,23.30
2023-04-02T14:23:30.416Z,23.17
2023-04-02T14:24:57.612Z,23.17
2023-04-02T14:26:19.784Z,23.07
2023-04-02T14:27:32.595Z,23.12
2023-04-02T14:29:02.576Z,23.17
2023-04-02T14:30:19.422Z,23.21
2023-04-02T14:31:55.807Z,22.99
2023-04-02T14:33:27.953Z,22.93
2023-04-02T14:34:39.943Z,22.96
2023-04-02T14:35:45.188Z,22.82
2023-04-02T14:37:23.596Z,22.85
2023-04-02T14:38:56.149Z,22.90
2023-04-02T14:40:05.304Z,23.00
2023-04-02T14:41:11.384Z,23.06
2023-04-02T14:42:17.598Z,22.96
2023-04-02T14:43:45.454Z,22.91
2023-04-02T14:44:55.881Z,22.86
2023-04-02T14:46:05.621Z,22.79
2023-04-02T14:47:19.891Z,22.64
2023-04-02T14:48:58.596Z,22.63
2023-04-02T14:50:14.672Z,22.78
2023-04-02T14:51:41.351Z,22.75
2023-04-02T14:52:46.843Z,22.74
2023-04-02T14:54:06.703Z,22.71
2023-04-02T14:55:36.761Z,22.76
2023-04-02T14:57:05.294Z,22.74
2023-04-02T14:58:14.517Z,22.60
2023-04-02T14:59:30.541Z,22.64
2023-04-02T15:00:39.658Z,22.60
2023-04-02T15:01:45.069Z,22.45
2023-04-02T15:02:52.432Z,22.33
2023-04-02T15:04:03.432Z,22.15
2023-04-02T15:05:19.405Z,22.15
2023-04-02T15:06:28.530Z,22.20
2023-04-02T15:07:39.863Z,22.21
2023-04-02T15:09:06.244Z,22.05
2023-04-02T15:10:18.466Z,22.06
2023-04-02T15:11:36.844Z,22.23
2023-04-02T15:12:40.466Z,22.14
2023-04-02T15:13:52.706Z,22.00
2023-04-02T15:15:03.918Z,21.95
2023-04-02T15:16:23.360Z,21.86
2023-04-02T15:17:27.124Z,21.76
2023-04-02T15:18:30.973Z,21.90
2023-04-02T15:19:34.543Z,21.91
2023-04-02T15:21:09.284Z,21.76
2023-04-02T15:22:41.094Z,21.75
2023-04-02T15:23:47.538Z,21.67
2023-04-02T15:25:12.566Z,21.74
2023-04-02T15:26:47.549Z,21.75
2023-04-02T15:28:12.540Z,21.80
2023-04-02T15:29:40.571Z,21.79
2023-04-02T15:30:44.872Z,21.78
2023-04-02T15:31:49.106Z,21.81
2023-04-02T15:32:53.960Z,21.70
2023-04-02T15:34:27.302Z,21.54
2023-04-02T15:35:39.373Z,21.48
2023-04-02T15:36:49.298Z,21.32
2023-04-02T15:38:13.791Z,21.40
2023-04-02T15:40:01.856Z,21.28
2023-04-02T15:41:43.458Z,21.28
2023-04-02T15:42:53.459Z,21.26
2023-04-02T15:44:16.482Z,21.40
2023-04-02T15:45:27.738Z,21.32